Time;durP1;ratioP1;P1;durP2;ratioP2;P2;SDS_P1;SDS_P2;PMS_P1;PMS_P2;Temp;Humidity;BMP_temperature;BMP_pressure;BME280_temperature;BME280_humidity;BME280_pressure;Samples;Min_cycle;Max_cycle;Signal;HPM_P1;HPM_P2
2024/01/01 00:01:47;;;;;;;27.47;13.33;;;;;;;;;;4968746;28;20219;-66
2024/01/01 00:04:15;;;;;;;19.70;9.50;;;;;;;;;;4967926;28;20286;-65
2024/01/01 00:06:42;;;;;;;19.00;10.00;;;;;;;;;;4969045;28;20261;-66
2024/01/01 00:09:10;;;;;;;19.23;10.47;;;;;;;;;;4968566;28;20222;-66
2024/01/01 00:11:38;;;;;;;15.23;8.73;;;;;;;;;;4968576;28;20214;-66
2024/01/01 00:14:05;;;;;;;12.93;9.20;;;;;;;;;;4969084;28;20759;-66
2024/01/01 00:16:33;;;;;;;17.40;9.70;;;;;;;;;;4968962;28;20210;-66
2024/01/01 00:19:00;;;;;;;16.40;8.87;;;;;;;;;;4967912;28;20269;-66
2024/01/01 00:21:28;;;;;;;18.90;10.00;;;;;;;;;;4968421;28;20600;-66
2024/01/01 00:23:55;;;;;;;19.87;10.17;;;;;;;;;;4968658;28;20337;-66
2024/01/01 00:26:23;;;;;;;25.57;11.63;;;;;;;;;;4968298;28;20265;-66
2024/01/01 00:28:50;;;;;;;22.40;11.83;;;;;;;;;;4968248;28;20654;-65
2024/01/01 00:31:17;;;;;;;20.73;11.87;;;;;;;;;;4968492;28;20210;-65
2024/01/01 00:33:44;;;;;;;21.23;12.03;;;;;;;;;;4968528;28;20214;-66
2024/01/01 00:36:11;;;;;;;20.07;12.67;;;;;;;;;;4968705;28;20665;-64
2024/01/01 00:38:38;;;;;;;22.17;13.97;;;;;;;;;;4968455;28;20206;-68
2024/01/01 00:41:05;;;;;;;24.63;15.37;;;;;;;;;;4968751;28;20704;-66
2024/01/01 00:43:34;;;;;;;25.20;13.93;;;;;;;;;;4967635;28;20215;-65
2024/01/01 00:46:02;;;;;;;25.17;14.83;;;;;;;;;;4980321;28;20210;-66
2024/01/01 00:48:29;;;;;;;28.97;15.10;;;;;;;;;;4983922;28;20499;-66
2024/01/01 00:50:56;;;;;;;25.57;14.90;;;;;;;;;;4967751;28;20215;-66
2024/01/01 00:53:23;;;;;;;34.23;17.33;;;;;;;;;;4967943;28;20210;-65
2024/01/01 00:55:50;;;;;;;31.20;18.13;;;;;;;;;;4967808;28;20621;-66
2024/01/01 00:58:17;;;;;;;35.93;19.80;;;;;;;;;;4967782;28;20211;-66
2024/01/01 01:00:45;;;;;;;39.07;20.83;;;;;;;;;;4967736;28;20433;-66
2024/01/01 01:03:13;;;;;;;34.23;20.33;;;;;;;;;;4967488;28;20226;-66
2024/01/01 01:05:40;;;;;;;42.20;21.93;;;;;;;;;;4967837;28;20218;-65
2024/01/01 01:08:07;;;;;;;40.70;22.07;;;;;;;;;;4965879;28;20218;-66
2024/01/01 01:10:34;;;;;;;45.23;23.17;;;;;;;;;;4966288;28;20212;-66
2024/01/01 01:13:01;;;;;;;35.80;19.43;;;;;;;;;;4985051;28;20366;-65
2024/01/01 01:15:28;;;;;;;44.07;23.80;;;;;;;;;;4983534;28;20218;-66
2024/01/01 01:17:56;;;;;;;41.33;22.20;;;;;;;;;;4958941;28;20731;-66
2024/01/01 01:20:23;;;;;;;42.67;23.70;;;;;;;;;;4966927;28;20237;-66
2024/01/01 01:22:50;;;;;;;40.27;22.77;;;;;;;;;;4966692;28;20226;-66
2024/01/01 01:25:18;;;;;;;41.07;22.33;;;;;;;;;;4965325;28;20238;-67
2024/01/01 01:27:45;;;;;;;40.47;21.50;;;;;;;;;;4961539;28;20234;-67
2024/01/01 01:30:13;;;;;;;33.70;19.73;;;;;;;;;;4967956;28;20264;-66
2024/01/01 01:32:40;;;;;;;40.07;20.20;;;;;;;;;;4967437;28;20210;-67
2024/01/01 01:35:09;;;;;;;33.97;19.77;;;;;;;;;;4967492;28;20214;-67
2024/01/01 01:37:36;;;;;;;35.27;18.97;;;;;;;;;;4967934;28;20676;-67
2024/01/01 01:40:04;;;;;;;30.10;17.07;;;;;;;;;;4952624;28;20207;-67
2024/01/01 01:42:31;;;;;;;30.53;17.00;;;;;;;;;;4968048;28;20213;-67
2024/01/01 01:44:58;;;;;;;30.93;16.63;;;;;;;;;;4967200;28;20652;-67
2024/01/01 01:47:26;;;;;;;24.13;15.13;;;;;;;;;;4967703;28;20265;-67
2024/01/01 01:49:53;;;;;;;26.20;14.07;;;;;;;;;;4966064;28;20238;-66
2024/01/01 01:52:22;;;;;;;22.37;12.70;;;;;;;;;;4966531;28;20213;-67
2024/01/01 01:54:50;;;;;;;17.73;10.77;;;;;;;;;;4966621;28;20214;-67
2024/01/01 01:57:18;;;;;;;21.37;11.47;;;;;;;;;;4967036;28;20214;-67
2024/01/01 01:59:45;;;;;;;17.67;10.23;;;;;;;;;;4967749;28;20207;-67
2024/01/01 02:02:12;;;;;;;17.73;9.57;;;;;;;;;;4966456;28;20206;-67
2024/01/01 02:04:39;;;;;;;14.67;7.67;;;;;;;;;;4970911;28;20684;-67
2024/01/01 02:07:06;;;;;;;15.60;8.10;;;;;;;;;;4971745;28;20218;-67
2024/01/01 02:09:35;;;;;;;14.43;8.07;;;;;;;;;;4971644;28;20234;-66
2024/01/01 02:12:02;;;;;;;11.57;7.87;;;;;;;;;;4971868;28;20222;-67
2024/01/01 02:14:29;;;;;;;13.40;8.57;;;;;;;;;;4971758;28;20213;-67
2024/01/01 02:16:56;;;;;;;13.93;7.57;;;;;;;;;;4971615;28;20315;-66
2024/01/01 02:19:26;;;;;;;14.97;7.53;;;;;;;;;;4971472;28;20269;-66
2024/01/01 02:21:53;;;;;;;13.93;7.83;;;;;;;;;;4970822;28;20736;-66
2024/01/01 02:24:22;;;;;;;18.37;7.57;;;;;;;;;;4971285;28;20273;-67
2024/01/01 02:26:49;;;;;;;11.77;6.93;;;;;;;;;;4970657;28;20210;-66
2024/01/01 02:29:16;;;;;;;12.60;7.00;;;;;;;;;;4970589;28;20233;-67
2024/01/01 02:31:44;;;;;;;9.60;6.50;;;;;;;;;;4971127;28;20927;-66
2024/01/01 02:34:11;;;;;;;18.10;7.00;;;;;;;;;;4970584;28;20211;-66
2024/01/01 02:36:39;;;;;;;11.97;6.83;;;;;;;;;;4970827;28;20265;-66
2024/01/01 02:39:07;;;;;;;12.63;6.53;;;;;;;;;;4959321;28;20238;-66
2024/01/01 02:41:35;;;;;;;9.50;6.17;;;;;;;;;;4953779;28;20440;-67
2024/01/01 02:44:03;;;;;;;10.37;6.00;;;;;;;;;;4970754;28;20756;-67
2024/01/01 02:46:30;;;;;;;7.23;4.97;;;;;;;;;;4971124;28;20207;-66
2024/01/01 02:48:57;;;;;;;8.27;5.00;;;;;;;;;;4969021;28;20285;-66
2024/01/01 02:51:24;;;;;;;6.60;4.20;;;;;;;;;;4958913;28;20214;-67
2024/01/01 02:53:51;;;;;;;6.97;4.40;;;;;;;;;;4970971;28;20215;-67
2024/01/01 02:56:18;;;;;;;5.53;3.73;;;;;;;;;;4970377;28;20215;-66
2024/01/01 02:58:47;;;;;;;4.77;3.37;;;;;;;;;;4970894;28;20206;-67
2024/01/01 03:01:14;;;;;;;6.07;2.53;;;;;;;;;;4970470;28;20206;-66
2024/01/01 03:03:41;;;;;;;3.33;2.40;;;;;;;;;;4970619;28;20217;-66
2024/01/01 03:06:08;;;;;;;2.07;1.80;;;;;;;;;;4968908;28;20213;-66
2024/01/01 03:08:37;;;;;;;2.03;1.80;;;;;;;;;;4968877;28;20273;-67
2024/01/01 03:11:04;;;;;;;2.50;1.17;;;;;;;;;;4970457;28;20256;-67
2024/01/01 03:13:31;;;;;;;2.27;1.53;;;;;;;;;;4970109;28;20203;-66
2024/01/01 03:16:00;;;;;;;4.20;1.43;;;;;;;;;;4970219;28;20261;-67
2024/01/01 03:18:27;;;;;;;1.83;1.20;;;;;;;;;;4968252;28;20202;-66
2024/01/01 03:20:54;;;;;;;2.87;1.60;;;;;;;;;;4969930;28;20724;-66
2024/01/01 03:23:21;;;;;;;5.30;1.60;;;;;;;;;;4969816;28;20245;-66
2024/01/01 03:25:48;;;;;;;1.90;1.33;;;;;;;;;;4971272;28;20211;-66
2024/01/01 03:28:15;;;;;;;4.17;1.63;;;;;;;;;;4975588;28;20265;-66
2024/01/01 03:30:42;;;;;;;6.83;2.10;;;;;;;;;;4969299;28;20268;-66
2024/01/01 03:33:10;;;;;;;3.83;2.10;;;;;;;;;;4969915;28;20218;-66
2024/01/01 03:35:37;;;;;;;4.77;1.77;;;;;;;;;;4969679;28;20685;-66
2024/01/01 03:38:04;;;;;;;2.60;1.97;;;;;;;;;;4969330;28;20681;-67
2024/01/01 03:40:31;;;;;;;5.87;1.93;;;;;;;;;;4969654;28;20254;-67
2024/01/01 03:43:00;;;;;;;5.33;1.67;;;;;;;;;;4953408;28;20238;-66
2024/01/01 03:45:27;;;;;;;5.60;1.50;;;;;;;;;;4954836;28;20206;-67
2024/01/01 03:47:54;;;;;;;4.13;1.20;;;;;;;;;;4969493;28;20202;-65
2024/01/01 03:50:22;;;;;;;5.37;1.27;;;;;;;;;;4969381;28;20230;-64
2024/01/01 03:52:49;;;;;;;2.63;1.10;;;;;;;;;;4968789;28;20202;-64
2024/01/01 03:55:16;;;;;;;6.87;1.20;;;;;;;;;;4969692;28;20656;-65
2024/01/01 03:57:44;;;;;;;2.07;1.10;;;;;;;;;;4969686;28;20218;-65
2024/01/01 04:00:12;;;;;;;1.80;1.00;;;;;;;;;;4969334;28;20199;-65
2024/01/01 04:02:40;;;;;;;3.03;0.90;;;;;;;;;;4969117;28;20308;-65
2024/01/01 04:05:07;;;;;;;3.60;0.80;;;;;;;;;;4969418;28;20210;-65
2024/01/01 04:07:36;;;;;;;2.20;0.90;;;;;;;;;;4969551;28;20308;-64
2024/01/01 04:10:05;;;;;;;4.97;0.97;;;;;;;;;;4969030;28;20226;-65
2024/01/01 04:12:32;;;;;;;4.00;0.80;;;;;;;;;;4969061;28;20206;-64
2024/01/01 04:14:59;;;;;;;5.07;1.07;;;;;;;;;;4969239;28;20218;-65
2024/01/01 04:17:26;;;;;;;3.90;0.77;;;;;;;;;;4968922;28;20209;-65
2024/01/01 04:19:53;;;;;;;2.07;1.10;;;;;;;;;;4969238;28;20621;-65
2024/01/01 04:22:20;;;;;;;6.30;1.13;;;;;;;;;;4968907;28;20230;-65
2024/01/01 04:24:49;;;;;;;4.80;0.90;;;;;;;;;;4968843;28;20783;-65
2024/01/01 04:27:16;;;;;;;2.40;0.90;;;;;;;;;;4968482;28;20884;-65
2024/01/01 04:29:43;;;;;;;1.70;1.00;;;;;;;;;;4969030;28;20222;-66
2024/01/01 04:32:10;;;;;;;2.57;0.90;;;;;;;;;;4968596;28;20217;-66
2024/01/01 04:34:37;;;;;;;1.33;0.70;;;;;;;;;;4968706;28;20207;-66
2024/01/01 04:37:04;;;;;;;0.73;0.60;;;;;;;;;;4968560;28;20218;-66
2024/01/01 04:39:31;;;;;;;1.30;0.60;;;;;;;;;;4968913;28;20210;-66
2024/01/01 04:42:00;;;;;;;2.63;0.60;;;;;;;;;;4968641;28;20218;-66
2024/01/01 04:44:27;;;;;;;2.57;1.10;;;;;;;;;;4968061;28;20211;-66
2024/01/01 04:46:54;;;;;;;1.13;0.40;;;;;;;;;;4968662;28;20207;-66
2024/01/01 04:49:21;;;;;;;1.77;0.60;;;;;;;;;;4968522;28;20202;-65
2024/01/01 04:51:48;;;;;;;1.90;0.50;;;;;;;;;;4968463;28;20495;-66
2024/01/01 04:54:15;;;;;;;1.10;0.40;;;;;;;;;;4968349;28;20218;-65
2024/01/01 04:56:42;;;;;;;1.20;0.70;;;;;;;;;;4968093;28;20211;-65
2024/01/01 04:59:10;;;;;;;3.30;0.47;;;;;;;;;;4968100;28;20214;-66
2024/01/01 05:01:37;;;;;;;0.43;0.43;;;;;;;;;;4968287;28;20198;-65
2024/01/01 05:04:04;;;;;;;3.90;0.50;;;;;;;;;;4968332;28;20680;-65
2024/01/01 05:06:31;;;;;;;2.03;0.80;;;;;;;;;;4967960;28;20677;-66
2024/01/01 05:08:58;;;;;;;0.97;0.50;;;;;;;;;;4967984;28;20214;-66
2024/01/01 05:11:25;;;;;;;4.80;0.67;;;;;;;;;;4967775;28;20569;-65
2024/01/01 05:13:52;;;;;;;2.83;0.80;;;;;;;;;;4968076;28;20261;-65
2024/01/01 05:16:21;;;;;;;5.47;0.80;;;;;;;;;;4967922;28;20214;-66
2024/01/01 05:18:48;;;;;;;3.07;1.00;;;;;;;;;;4968074;28;20222;-65
2024/01/01 05:21:15;;;;;;;3.40;0.90;;;;;;;;;;4968107;28;20260;-66
2024/01/01 05:23:42;;;;;;;2.23;0.70;;;;;;;;;;4967994;28;20253;-66
2024/01/01 05:26:09;;;;;;;5.73;0.83;;;;;;;;;;4967574;28;20206;-65
2024/01/01 05:28:36;;;;;;;3.00;0.67;;;;;;;;;;4967652;28;20518;-65
2024/01/01 05:31:03;;;;;;;3.17;0.60;;;;;;;;;;4967946;28;20234;-65
2024/01/01 05:33:32;;;;;;;7.50;0.90;;;;;;;;;;4967969;28;20221;-66
2024/01/01 05:35:59;;;;;;;1.67;0.60;;;;;;;;;;4967564;28;20265;-66
2024/01/01 05:38:26;;;;;;;4.23;0.80;;;;;;;;;;4966754;28;20213;-65
2024/01/01 05:40:53;;;;;;;3.33;0.73;;;;;;;;;;4967901;28;20969;-66
2024/01/01 05:43:21;;;;;;;1.70;0.90;;;;;;;;;;4967488;28;20703;-66
2024/01/01 05:45:49;;;;;;;3.93;0.70;;;;;;;;;;4967869;28;20268;-66
2024/01/01 05:48:16;;;;;;;2.00;0.60;;;;;;;;;;4967023;28;20206;-66
2024/01/01 05:50:44;;;;;;;5.33;0.77;;;;;;;;;;4967369;28;20222;-66
2024/01/01 05:53:11;;;;;;;3.43;0.70;;;;;;;;;;4967660;28;20572;-65
2024/01/01 05:55:38;;;;;;;2.47;0.80;;;;;;;;;;4967627;28;20217;-65
2024/01/01 05:58:05;;;;;;;4.47;0.57;;;;;;;;;;4967904;28;20210;-65
2024/01/01 06:00:36;;;;;;;5.23;0.67;;;;;;;;;;4967598;28;20245;-66
2024/01/01 06:03:03;;;;;;;6.63;0.90;;;;;;;;;;4967740;28;20221;-66
2024/01/01 06:05:30;;;;;;;5.73;0.60;;;;;;;;;;4967503;28;20215;-66
2024/01/01 06:07:59;;;;;;;0.53;0.50;;;;;;;;;;4967277;28;20210;-66
2024/01/01 06:10:26;;;;;;;0.70;0.30;;;;;;;;;;4967358;28;20237;-65
2024/01/01 06:12:54;;;;;;;3.33;0.33;;;;;;;;;;4967415;28;20232;-66
2024/01/01 06:15:21;;;;;;;0.80;0.40;;;;;;;;;;4967238;28;20217;-65
2024/01/01 06:17:48;;;;;;;3.60;0.50;;;;;;;;;;4967189;28;20301;-65
2024/01/01 06:20:15;;;;;;;0.73;0.30;;;;;;;;;;4967473;28;20214;-65
2024/01/01 06:22:43;;;;;;;4.93;0.30;;;;;;;;;;4967282;28;20226;-65
2024/01/01 06:25:11;;;;;;;3.50;0.30;;;;;;;;;;4966986;28;20360;-66
2024/01/01 06:27:38;;;;;;;4.77;0.80;;;;;;;;;;4967498;28;20218;-66
2024/01/01 06:30:06;;;;;;;2.30;0.87;;;;;;;;;;4963213;28;20641;-66
2024/01/01 06:32:33;;;;;;;2.70;0.53;;;;;;;;;;4948414;28;20306;-66
2024/01/01 06:35:00;;;;;;;0.70;0.50;;;;;;;;;;4953751;28;20316;-66
2024/01/01 06:37:27;;;;;;;0.53;0.50;;;;;;;;;;4966868;28;20490;-65
2024/01/01 06:39:54;;;;;;;3.10;0.67;;;;;;;;;;4967302;28;20211;-66
2024/01/01 06:42:22;;;;;;;0.50;0.50;;;;;;;;;;4967222;28;20222;-66
2024/01/01 06:44:49;;;;;;;2.23;0.77;;;;;;;;;;4966965;28;20297;-65
2024/01/01 06:47:16;;;;;;;3.63;1.10;;;;;;;;;;4966993;28;20215;-66
2024/01/01 06:49:43;;;;;;;0.60;0.43;;;;;;;;;;4967646;28;20210;-66
2024/01/01 06:52:10;;;;;;;1.57;0.43;;;;;;;;;;4970873;28;20231;-66
2024/01/01 06:54:41;;;;;;;2.73;0.50;;;;;;;;;;4970696;28;20219;-66
2024/01/01 06:57:08;;;;;;;4.57;0.60;;;;;;;;;;4970748;28;20202;-65
2024/01/01 06:59:37;;;;;;;0.80;0.30;;;;;;;;;;4970135;28;20294;-66
2024/01/01 07:02:04;;;;;;;0.93;0.40;;;;;;;;;;4970635;28;20310;-65
2024/01/01 07:04:31;;;;;;;2.27;0.50;;;;;;;;;;4970113;28;20210;-66
2024/01/01 07:06:58;;;;;;;1.57;0.70;;;;;;;;;;4970542;28;20280;-66
2024/01/01 07:09:25;;;;;;;4.07;1.07;;;;;;;;;;4970441;28;20214;-66
2024/01/01 07:11:53;;;;;;;3.07;1.00;;;;;;;;;;4970412;28;20223;-66
2024/01/01 07:14:20;;;;;;;1.77;0.87;;;;;;;;;;4970669;28;20222;-66
2024/01/01 07:16:48;;;;;;;1.90;0.57;;;;;;;;;;4969926;28;20214;-66
2024/01/01 07:19:15;;;;;;;1.33;0.60;;;;;;;;;;4970270;28;20225;-66
2024/01/01 07:21:42;;;;;;;1.47;0.67;;;;;;;;;;4970056;28;20230;-65
2024/01/01 07:24:09;;;;;;;2.40;0.70;;;;;;;;;;4969850;28;20242;-66
2024/01/01 07:26:37;;;;;;;3.17;0.87;;;;;;;;;;4969948;28;20363;-66
2024/01/01 07:29:05;;;;;;;5.33;1.20;;;;;;;;;;4970282;28;20688;-66
2024/01/01 07:31:33;;;;;;;2.60;1.20;;;;;;;;;;4970082;28;20645;-66
2024/01/01 07:34:01;;;;;;;4.33;1.53;;;;;;;;;;4969953;28;20707;-65
2024/01/01 07:36:28;;;;;;;1.87;0.70;;;;;;;;;;4968922;28;20221;-66
2024/01/01 07:38:55;;;;;;;7.67;1.00;;;;;;;;;;4969849;28;20633;-65
2024/01/01 07:41:22;;;;;;;2.87;0.70;;;;;;;;;;4969750;28;20293;-66
2024/01/01 07:43:49;;;;;;;3.37;0.50;;;;;;;;;;4969785;28;20217;-66
2024/01/01 07:46:17;;;;;;;4.03;0.83;;;;;;;;;;4969799;28;20218;-65
2024/01/01 07:48:44;;;;;;;3.27;0.60;;;;;;;;;;4969842;28;20300;-66
2024/01/01 07:51:12;;;;;;;2.60;1.00;;;;;;;;;;4969654;28;20843;-65
2024/01/01 07:53:39;;;;;;;3.77;0.80;;;;;;;;;;4968409;28;20285;-66
2024/01/01 07:56:07;;;;;;;5.33;1.20;;;;;;;;;;4969140;28;20213;-64
2024/01/01 07:58:34;;;;;;;4.30;1.10;;;;;;;;;;4969376;28;20210;-66
2024/01/01 08:01:01;;;;;;;5.20;0.93;;;;;;;;;;4968373;28;20759;-66
2024/01/01 08:03:28;;;;;;;2.83;0.77;;;;;;;;;;4969705;28;20214;-66
2024/01/01 08:05:55;;;;;;;1.00;0.60;;;;;;;;;;4969103;28;20858;-66
2024/01/01 08:08:23;;;;;;;2.47;0.63;;;;;;;;;;4969176;28;20213;-66
2024/01/01 08:10:50;;;;;;;4.43;0.60;;;;;;;;;;4968947;28;20222;-66
2024/01/01 08:13:17;;;;;;;3.87;0.60;;;;;;;;;;4968770;28;20265;-66
2024/01/01 08:15:44;;;;;;;2.00;0.70;;;;;;;;;;4969502;28;20234;-67
2024/01/01 08:18:11;;;;;;;3.73;1.03;;;;;;;;;;4968930;28;20225;-67
2024/01/01 08:20:38;;;;;;;0.90;0.90;;;;;;;;;;4968915;28;20268;-66
2024/01/01 08:23:05;;;;;;;1.03;0.60;;;;;;;;;;4968564;28;20206;-66
2024/01/01 08:25:34;;;;;;;5.67;0.70;;;;;;;;;;4969148;28;20210;-65
2024/01/01 08:28:01;;;;;;;3.07;0.63;;;;;;;;;;4968838;28;20202;-66
2024/01/01 08:30:28;;;;;;;1.43;0.90;;;;;;;;;;4969103;28;20262;-66
2024/01/01 08:32:56;;;;;;;1.80;0.57;;;;;;;;;;4968936;28;20214;-68
2024/01/01 08:35:23;;;;;;;6.37;0.83;;;;;;;;;;4968412;28;20210;-64
2024/01/01 08:37:50;;;;;;;3.33;0.93;;;;;;;;;;4968455;28;20558;-65
2024/01/01 08:40:17;;;;;;;4.87;1.10;;;;;;;;;;4968882;28;20217;-65
2024/01/01 08:42:47;;;;;;;6.00;1.07;;;;;;;;;;4968386;28;20233;-67
2024/01/01 08:45:16;;;;;;;4.40;0.97;;;;;;;;;;4967391;28;20233;-66
2024/01/01 08:47:43;;;;;;;7.10;1.50;;;;;;;;;;4968546;28;20215;-66
2024/01/01 08:50:10;;;;;;;4.00;1.23;;;;;;;;;;4968359;28;20659;-64
2024/01/01 08:52:37;;;;;;;3.83;0.90;;;;;;;;;;4981586;28;20241;-65
2024/01/01 08:55:04;;;;;;;5.27;1.00;;;;;;;;;;4976063;28;20224;-65
2024/01/01 08:57:31;;;;;;;2.97;0.70;;;;;;;;;;4968366;28;20583;-66
2024/01/01 08:59:59;;;;;;;4.63;0.93;;;;;;;;;;4968175;28;20261;-65
2024/01/01 09:02:26;;;;;;;1.87;0.87;;;;;;;;;;4968191;28;20261;-65
2024/01/01 09:04:54;;;;;;;5.20;1.10;;;;;;;;;;4968240;28;20218;-65
2024/01/01 09:07:23;;;;;;;9.83;1.10;;;;;;;;;;4968324;28;20221;-64
2024/01/01 09:09:50;;;;;;;5.53;0.80;;;;;;;;;;4967968;28;20214;-65
2024/01/01 09:12:17;;;;;;;3.03;0.80;;;;;;;;;;4967855;28;20329;-65
2024/01/01 09:14:45;;;;;;;3.23;0.80;;;;;;;;;;4955168;28;20214;-65
2024/01/01 09:17:13;;;;;;;0.77;0.50;;;;;;;;;;4967978;28;20230;-65
2024/01/01 09:19:40;;;;;;;2.47;0.60;;;;;;;;;;4967375;28;20229;-65
2024/01/01 09:22:08;;;;;;;4.00;0.83;;;;;;;;;;4967566;28;20581;-66
2024/01/01 09:24:35;;;;;;;1.27;0.40;;;;;;;;;;4967415;28;20273;-65
2024/01/01 09:27:02;;;;;;;3.10;0.50;;;;;;;;;;4967774;28;20233;-65
2024/01/01 09:29:29;;;;;;;8.23;0.57;;;;;;;;;;4967774;28;20944;-65
2024/01/01 09:31:56;;;;;;;0.23;0.23;;;;;;;;;;4967674;28;20240;-65
2024/01/01 09:34:25;;;;;;;3.17;0.50;;;;;;;;;;4967624;28;20217;-67
2024/01/01 09:36:52;;;;;;;3.50;0.50;;;;;;;;;;4967806;28;20218;-66
2024/01/01 09:39:19;;;;;;;1.30;0.40;;;;;;;;;;4967915;28;20940;-66
2024/01/01 09:41:46;;;;;;;2.10;0.60;;;;;;;;;;4967778;28;20194;-67
2024/01/01 09:44:13;;;;;;;3.30;0.57;;;;;;;;;;4967642;28;20214;-67
2024/01/01 09:46:40;;;;;;;3.70;0.77;;;;;;;;;;4967714;28;20257;-67
2024/01/01 09:49:07;;;;;;;3.50;0.70;;;;;;;;;;4967719;28;20214;-65
2024/01/01 09:51:39;;;;;;;3.27;0.90;;;;;;;;;;4967575;28;20265;-65
2024/01/01 09:54:07;;;;;;;6.80;1.10;;;;;;;;;;4967372;28;20704;-64
2024/01/01 09:56:34;;;;;;;1.20;0.70;;;;;;;;;;4967749;28;20500;-65
2024/01/01 09:59:01;;;;;;;8.03;1.00;;;;;;;;;;4967364;28;20214;-65
2024/01/01 10:01:30;;;;;;;3.40;0.80;;;;;;;;;;4967025;28;20232;-66
2024/01/01 10:04:02;;;;;;;2.37;1.30;;;;;;;;;;4967289;28;20222;-65
2024/01/01 10:06:29;;;;;;;0.80;0.80;;;;;;;;;;4966536;28;20209;-64
2024/01/01 10:09:06;;;;;;;5.60;0.93;;;;;;;;;;4967546;28;20219;-65
2024/01/01 10:11:34;;;;;;;2.77;0.83;;;;;;;;;;4966447;28;20265;-65
2024/01/01 10:14:04;;;;;;;4.13;1.00;;;;;;;;;;4956679;28;20202;-62
2024/01/01 10:16:31;;;;;;;8.97;1.10;;;;;;;;;;4967453;28;20248;-61
2024/01/01 10:19:00;;;;;;;5.30;1.07;;;;;;;;;;4967234;28;20214;-65
2024/01/01 10:21:29;;;;;;;5.00;1.23;;;;;;;;;;4967038;28;20319;-64
2024/01/01 10:23:56;;;;;;;4.87;0.97;;;;;;;;;;4965725;28;20258;-64
2024/01/01 10:26:24;;;;;;;7.87;1.00;;;;;;;;;;4971170;28;20313;-64
2024/01/01 10:28:51;;;;;;;4.70;0.93;;;;;;;;;;4971357;28;20198;-64
2024/01/01 10:31:19;;;;;;;4.77;1.30;;;;;;;;;;4970551;28;20685;-64
2024/01/01 10:33:49;;;;;;;6.10;1.20;;;;;;;;;;4970648;28;20203;-64
2024/01/01 10:36:18;;;;;;;6.53;1.63;;;;;;;;;;4970408;28;20601;-64
2024/01/01 10:38:48;;;;;;;2.33;1.07;;;;;;;;;;4983663;28;20417;-64
2024/01/01 10:41:17;;;;;;;6.90;1.80;;;;;;;;;;4970561;28;20682;-65
2024/01/01 10:43:47;;;;;;;7.60;1.47;;;;;;;;;;4970544;28;20213;-65
2024/01/01 10:46:14;;;;;;;6.80;1.80;;;;;;;;;;4970585;28;20221;-65
2024/01/01 10:48:41;;;;;;;10.20;1.90;;;;;;;;;;4970426;28;20254;-66
2024/01/01 10:51:17;;;;;;;2.33;0.90;;;;;;;;;;4970390;28;20210;-64
2024/01/01 10:53:54;;;;;;;4.80;1.13;;;;;;;;;;4970523;28;20210;-66
2024/01/01 10:56:27;;;;;;;2.67;0.80;;;;;;;;;;4970512;28;20217;-65
2024/01/01 10:59:03;;;;;;;2.20;1.00;;;;;;;;;;4970418;28;20202;-65
2024/01/01 11:01:30;;;;;;;4.57;1.10;;;;;;;;;;4970463;28;20304;-64
2024/01/01 11:03:57;;;;;;;5.33;1.00;;;;;;;;;;4970565;28;20277;-64
2024/01/01 11:06:26;;;;;;;5.30;1.53;;;;;;;;;;4969746;28;20296;-64
2024/01/01 11:08:53;;;;;;;6.43;1.43;;;;;;;;;;4965109;28;20217;-63
2024/01/01 11:11:30;;;;;;;7.07;1.97;;;;;;;;;;4967733;28;20218;-63
2024/01/01 11:13:59;;;;;;;7.87;1.93;;;;;;;;;;4970268;28;20602;-63
2024/01/01 11:16:26;;;;;;;7.33;1.73;;;;;;;;;;4969732;28;20630;-65
2024/01/01 11:18:54;;;;;;;5.00;1.70;;;;;;;;;;4970246;28;20226;-64
2024/01/01 11:21:27;;;;;;;6.60;1.20;;;;;;;;;;4969649;28;20234;-64
2024/01/01 11:23:56;;;;;;;4.50;1.73;;;;;;;;;;4969950;28;20342;-66
2024/01/01 11:26:27;;;;;;;6.43;1.77;;;;;;;;;;4969983;28;20214;-66
2024/01/01 11:28:55;;;;;;;9.63;1.40;;;;;;;;;;4969930;28;20309;-64
2024/01/01 11:31:23;;;;;;;4.23;1.13;;;;;;;;;;4969536;28;20232;-64
2024/01/01 11:33:59;;;;;;;9.37;1.07;;;;;;;;;;4969978;28;20211;-65
2024/01/01 11:36:26;;;;;;;3.53;1.30;;;;;;;;;;4974720;28;20213;-64
2024/01/01 11:38:53;;;;;;;4.40;1.33;;;;;;;;;;4969683;28;20225;-65
2024/01/01 11:41:24;;;;;;;5.20;1.43;;;;;;;;;;4966911;28;20245;-65
2024/01/01 11:43:51;;;;;;;4.73;1.17;;;;;;;;;;4969300;28;20289;-66
2024/01/01 11:46:26;;;;;;;11.40;1.37;;;;;;;;;;4969334;28;20207;-67
2024/01/01 11:48:57;;;;;;;2.80;0.53;;;;;;;;;;4968832;28;20206;-65
2024/01/01 11:51:24;;;;;;;6.87;1.57;;;;;;;;;;4967643;28;20293;-67
2024/01/01 11:54:04;;;;;;;5.40;1.07;;;;;;;;;;4968825;28;20313;-63
2024/01/01 11:56:31;;;;;;;5.27;1.00;;;;;;;;;;4968810;28;20215;-66
2024/01/01 11:58:59;;;;;;;6.10;1.07;;;;;;;;;;4968936;28;20269;-65
2024/01/01 12:01:27;;;;;;;2.10;0.60;;;;;;;;;;4968678;28;20210;-66
2024/01/01 12:03:55;;;;;;;8.27;2.70;;;;;;;;;;4969203;28;20210;-67
2024/01/01 12:06:22;;;;;;;10.63;2.80;;;;;;;;;;4968846;28;20207;-64
2024/01/01 12:08:50;;;;;;;4.30;1.30;;;;;;;;;;4968971;28;20214;-66
2024/01/01 12:11:18;;;;;;;3.30;1.10;;;;;;;;;;4968910;28;20218;-70
2024/01/01 12:13:55;;;;;;;3.57;1.07;;;;;;;;;;4968690;28;20322;-66
2024/01/01 12:16:22;;;;;;;5.43;1.10;;;;;;;;;;4968871;28;20688;-68
2024/01/01 12:18:55;;;;;;;4.57;1.20;;;;;;;;;;4965153;28;20658;-67
2024/01/01 12:21:22;;;;;;;6.73;1.70;;;;;;;;;;4968247;28;20253;-68
2024/01/01 12:23:50;;;;;;;5.73;1.40;;;;;;;;;;4968200;28;20373;-64
2024/01/01 12:26:22;;;;;;;3.73;1.37;;;;;;;;;;4968402;28;20634;-65
2024/01/01 12:29:04;;;;;;;3.57;0.90;;;;;;;;;;4968319;28;20242;-67
2024/01/01 12:31:31;;;;;;;3.13;0.90;;;;;;;;;;4968844;28;20206;-67
2024/01/01 12:33:59;;;;;;;4.90;1.33;;;;;;;;;;4968653;28;20230;-67
2024/01/01 12:36:26;;;;;;;6.70;1.27;;;;;;;;;;4968742;28;20265;-67
2024/01/01 12:38:53;;;;;;;2.77;1.77;;;;;;;;;;4967922;28;20554;-67
2024/01/01 12:41:20;;;;;;;1.57;0.80;;;;;;;;;;4968503;28;20220;-67
2024/01/01 12:43:47;;;;;;;2.57;0.80;;;;;;;;;;4968546;28;20210;-68
2024/01/01 12:46:14;;;;;;;1.23;0.90;;;;;;;;;;4969029;28;20362;-68
2024/01/01 12:48:43;;;;;;;5.33;1.20;;;;;;;;;;4968467;28;20692;-67
2024/01/01 12:51:12;;;;;;;4.57;0.90;;;;;;;;;;4968042;28;20221;-67
2024/01/01 12:53:39;;;;;;;3.90;1.13;;;;;;;;;;4968438;28;20325;-68
2024/01/01 12:56:07;;;;;;;5.40;0.83;;;;;;;;;;4968414;28;20269;-66
2024/01/01 12:58:34;;;;;;;4.30;1.23;;;;;;;;;;4968968;28;20308;-67
2024/01/01 13:01:01;;;;;;;2.57;1.20;;;;;;;;;;4967897;28;20210;-67
2024/01/01 13:03:28;;;;;;;2.63;0.90;;;;;;;;;;4968730;28;20302;-67
2024/01/01 13:05:55;;;;;;;3.53;1.00;;;;;;;;;;4968283;28;20230;-67
2024/01/01 13:08:23;;;;;;;7.20;1.13;;;;;;;;;;4968182;28;20766;-68
2024/01/01 13:10:50;;;;;;;7.73;1.43;;;;;;;;;;4967719;28;20202;-66
2024/01/01 13:13:17;;;;;;;7.80;1.80;;;;;;;;;;4968496;28;20708;-68
2024/01/01 13:15:45;;;;;;;1.70;1.20;;;;;;;;;;4968423;28;20419;-67
2024/01/01 13:18:12;;;;;;;10.53;1.83;;;;;;;;;;4968009;28;20209;-67
2024/01/01 13:20:41;;;;;;;7.23;1.87;;;;;;;;;;4967811;28;20478;-66
2024/01/01 13:23:08;;;;;;;6.40;1.70;;;;;;;;;;4968156;28;20210;-67
2024/01/01 13:25:36;;;;;;;4.87;1.60;;;;;;;;;;4968056;28;20246;-67
2024/01/01 13:28:04;;;;;;;7.80;1.80;;;;;;;;;;4967577;28;20202;-67
2024/01/01 13:30:31;;;;;;;8.10;1.53;;;;;;;;;;4962661;28;20217;-64
2024/01/01 13:32:58;;;;;;;13.33;1.97;;;;;;;;;;4967406;28;20234;-63
2024/01/01 13:35:25;;;;;;;6.47;1.90;;;;;;;;;;4966863;28;20218;-67
2024/01/01 13:37:52;;;;;;;6.10;1.63;;;;;;;;;;4966487;28;20273;-67
2024/01/01 13:40:19;;;;;;;3.13;1.13;;;;;;;;;;4967189;28;20218;-67
2024/01/01 13:42:47;;;;;;;5.57;1.60;;;;;;;;;;4964712;28;20240;-67
2024/01/01 13:45:14;;;;;;;7.17;1.30;;;;;;;;;;4966497;28;20221;-67
2024/01/01 13:47:42;;;;;;;5.40;1.90;;;;;;;;;;4966638;28;20214;-67
2024/01/01 13:50:09;;;;;;;4.43;1.23;;;;;;;;;;4966101;28;20218;-67
2024/01/01 13:52:36;;;;;;;8.70;2.17;;;;;;;;;;4967126;28;20230;-67
2024/01/01 13:55:04;;;;;;;7.57;1.33;;;;;;;;;;4967360;28;20218;-63
2024/01/01 13:57:31;;;;;;;13.87;2.07;;;;;;;;;;4967368;28;20785;-67
2024/01/01 14:00:00;;;;;;;9.50;1.63;;;;;;;;;;4961643;28;20358;-67
2024/01/01 14:02:27;;;;;;;9.23;1.83;;;;;;;;;;4966599;28;20677;-67
2024/01/01 14:04:54;;;;;;;3.67;1.63;;;;;;;;;;4967444;28;20218;-67
2024/01/01 14:07:21;;;;;;;6.33;1.43;;;;;;;;;;4967131;28;20587;-68
2024/01/01 14:09:48;;;;;;;4.63;1.37;;;;;;;;;;4967088;28;20218;-66
2024/01/01 14:12:15;;;;;;;10.17;1.50;;;;;;;;;;4967408;28;20210;-66
2024/01/01 14:14:43;;;;;;;10.20;2.00;;;;;;;;;;4967064;28;20207;-67
2024/01/01 14:17:12;;;;;;;4.73;1.47;;;;;;;;;;4967350;28;20254;-67
2024/01/01 14:19:39;;;;;;;9.30;1.70;;;;;;;;;;4966743;28;20210;-66
2024/01/01 14:22:06;;;;;;;6.07;1.47;;;;;;;;;;4967083;28;20226;-67
2024/01/01 14:24:33;;;;;;;2.33;0.97;;;;;;;;;;4966913;28;20226;-66
2024/01/01 14:27:03;;;;;;;6.10;2.30;;;;;;;;;;4966102;28;20257;-66
2024/01/01 14:29:30;;;;;;;7.90;1.83;;;;;;;;;;4966634;28;20210;-66
2024/01/01 14:31:57;;;;;;;6.37;2.17;;;;;;;;;;4967141;28;20214;-67
2024/01/01 14:34:26;;;;;;;11.47;2.43;;;;;;;;;;4967021;28;20230;-67
2024/01/01 14:36:53;;;;;;;13.73;1.87;;;;;;;;;;4967037;28;20443;-68
2024/01/01 14:39:20;;;;;;;5.43;1.23;;;;;;;;;;4966603;28;20246;-67
2024/01/01 14:41:48;;;;;;;7.23;1.90;;;;;;;;;;4966915;28;20215;-68